Reno (UNR), Valley Road, Nevada Weather observations

Data are for observation ending at time listed.
 Day   Time    Ave.   Ave.  Ave.  Vector   Max.    Total    Solar   Rl      Baro.   Ave.  
  of    of     Air    Rel.  Wind   Wind    Wind   Precip.   Rad.    in      Pres.   Soil  
Year   Day     Temp.  Hum.  Speed  Dir.    Gust                                     Temp. 
2016   (PST)    F      %     mph   deg.    mph      in.     W/m2    W/m2     mb.     F   
-----------------------------------------------------------------------------------------
 341   12:00   42.1    39   12.9   254     26.2     0.00     625     292    853.5   37.2
 341   12:10   42.1    39   11.1   263     23.3     0.00     623     292    853.4   37.4
 341   12:20   42.0    39   11.7   260     23.5     0.00     623     295    853.2   37.6
 341   12:30   41.9    40   12.1   248     22.5     0.00     592     290    853.2   37.9
 341   12:40   42.1    39   12.3   250     20.9     0.00     664     308    853.1   38.1
 341   12:50   42.5    38   12.9   253     22.0     0.00     550     324    853.0   38.3
 341   13:00   42.2    37   11.5   267     21.6     0.00     506     308    853.0   38.5
 341   13:10   42.1    39   11.0   253     18.2     0.00     527     304    853.0   38.7
 341   13:20   42.1    41   12.6   241     21.2     0.00     514     303    853.1   38.9
 341   13:30   40.8    42   11.0   250     18.8     0.00     154     308    853.1   39.1
 341   13:40   40.3    43    7.9   278     15.5     0.00     136     292    853.2   39.3
 341   13:50   39.8    44   10.6   280     18.3     0.00     194     306    853.4   39.5
 341   14:00   40.2    43   10.2   280     18.9     0.00     283     311    853.5   39.7
 341   14:10   40.1    44    8.7   257     14.6     0.00     109     308    853.5   39.8
 341   14:20   39.5    45    8.9   283     16.5     0.00     100     318    853.6   40.0
 341   14:30   39.6    44    9.1   285     17.0     0.00     227     317    853.6   40.1
 341   14:40   39.8    43    9.9   308     16.8     0.00     163     314    853.8   40.2
 341   14:50   39.2    44    8.3   310     16.3     0.00     102     286    854.0   40.3
 341   15:00   38.3    47    6.9   311     13.7     0.00     101     300    854.2   40.4
 341   15:10   38.0    47    7.0   323     12.4     0.00      76     301    854.3   40.4
 341   15:20   37.8    47    7.9   320     14.9     0.00      36     312    854.5   40.5
 341   15:30   37.6    48    7.3   324     12.6     0.00      35     316    854.7   40.5
 341   15:40   37.8    47    8.8   308     15.4     0.00      53     312    854.9   40.6
 341   15:50   37.5    47    9.8   328     16.6     0.00      63     288    855.0   40.6
 341   16:00   36.4    49   10.1   329     15.3     0.00      31     269    855.1   40.6
 341   16:10   36.1    50   10.7   327     16.9     0.00      22     291    855.3   40.6
 341   16:20   36.1    48   10.6   327     17.5     0.00       9     303    855.5   40.7
 341   16:30   35.8    48    9.8   325     18.2     0.00       3     309    855.7   40.6
 341   16:40   35.5    51    9.0   333     18.6     0.00       1     310    855.9   40.6
 341   16:50   35.3    51    8.4   332     12.4     0.00       1     306    856.1   40.6
 341   17:00   35.0    52    7.5   334     13.1     0.00       0     284    856.3   40.6
 341   17:10   34.7    54    7.9   330     15.8     0.00       0     296    856.3   40.6
 341   17:20   34.7    54    9.1   334     14.9     0.00       0     298    856.5   40.5
 341   17:30   34.6    56    7.6   332     13.0     0.00       0     298    856.7   40.5
 341   17:40   34.5    57    9.7   322     18.0     0.00       0     298    856.8   40.5
 341   17:50   33.8    62    9.2   320     14.9     0.00       0     284    856.8   40.4
 341   18:00   33.2    63    9.0   321     14.1     0.00       0     249    856.7   40.4
 341   18:10   33.6    56    7.4   308     12.5     0.00       0     241    857.0   40.3
 341   18:20   33.5    54    8.0   329     13.3     0.00       0     243    857.1   40.3
 341   18:30   33.6    52    9.3   325     15.8     0.00       0     245    857.3   40.2
 341   18:40   33.9    49    9.5   313     15.5     0.00       0     242    857.5   40.1
 341   18:50   33.5    50    7.4   324     12.8     0.00       0     240    857.7   40.1
 341   19:00   32.0    58    7.7     1     13.4     0.00       0     241    857.9   40.0
 341   19:10   31.7    61    7.9   352     12.0     0.00       0     239    858.0   40.0
 341   19:20   31.5    61    7.2   342     10.6     0.00       0     239    858.0   39.9
 341   19:30   31.3    62    7.5   333     10.5     0.00       0     240    858.1   39.8
 341   19:40   31.2    62    6.5   326      9.8     0.00       0     238    858.2   39.7
 341   19:50   31.2    62    7.3   323     12.7     0.00       0     238    858.3   39.6
 341   20:00   31.4    62    7.3   316     11.8     0.00       0     239    858.4   39.6
 341   20:10   31.1    62    7.3   336     15.5     0.00       0     236    858.6   39.5
 341   20:20   31.0    62    7.9   342     13.0     0.00       0     237    858.8   39.4
 341   20:30   30.8    63    7.4   342     11.5     0.00       0     235    859.0   39.3
 341   20:40   30.2    65    7.1   345     12.8     0.00       0     234    859.2   39.2
 341   20:50   30.1    65    6.5   335     10.7     0.00       0     235    859.3   39.1
 341   21:00   29.7    66    4.5   307     10.5     0.00       0     236    859.5   39.0
 341   21:10   29.2    67    2.0   201      3.6     0.00       0     236    859.7   38.9
 341   21:20   28.9    68    1.7   175      3.7     0.00       0     233    859.9   38.9
 341   21:30   29.1    69    2.5   124      4.9     0.00       0     236    860.1   38.8
 341   21:40   28.5    71    3.2    11      5.8     0.00       0     237    860.2   38.7
 341   21:50   28.5    73    4.6   350      6.3     0.00       0     232    860.3   38.6
 341   22:00   28.8    73    5.7   337      9.4     0.00       0     229    860.4   38.5
 341   22:10   28.7    73    4.6   346      7.6     0.00       0     229    860.6   38.4
 341   22:20   28.2    74    3.1   348      5.0     0.00       0     233    860.8   38.4
 341   22:30   27.8    74    3.3   328      5.3     0.00       0     231    860.9   38.3
 341   22:40   27.3    75    2.7   320      4.1     0.00       0     233    861.1   38.2
 341   22:50   27.1    75    3.5   317      5.4     0.00       0     232    861.2   38.1
 341   23:00   26.7    75    4.8   321      6.1     0.00       0     233    861.2   38.1
 341   23:10   26.7    74    3.8   323      5.8     0.00       0     233    861.3   38.0
 341   23:20   26.6    75    1.7   325      4.1     0.00       0     266    861.5   37.9
 341   23:30   26.5    76    0.7   270      4.2     0.00       0     288    861.7   37.8
 341   23:40   26.8    75    1.4   323      3.6     0.00       0     274    861.8   37.8
 341   23:50   26.5    75    0.8    56      2.3     0.00       0     258    861.8   37.7
 342    0:00   26.4    76    2.1    80      3.7     0.00       0     262    862.0   37.6
 342    0:10   26.2    76    1.0    48      2.8     0.00       0     245    861.9   37.6
 342    0:20   25.7    77    1.4   151      4.8     0.00       0     245    862.1   37.5
 342    0:30   26.1    77    1.8   101      5.2     0.00       0     250    862.2   37.5
 342    0:40   26.1    77    0.7   145      2.2     0.00       0     240    862.3   37.4
 342    0:50   26.3    76    1.7   127      4.0     0.00       0     252    862.4   37.3
 342    1:00   25.8    77    1.2   348      3.3     0.00       0     233    862.4   37.3
 342    1:10   25.4    78    0.7   141      1.8     0.00       0     233    862.5   37.2
 342    1:20   25.0    78    1.9   331      3.1     0.00       0     230    862.6   37.2
 342    1:30   23.8    79    0.6    24      1.9     0.00       0     230    862.7   37.1
 342    1:40   23.2    82    1.1    56      2.3     0.00       0     226    862.9   37.1
 342    1:50   23.0    83    1.5    14      2.2     0.00       0     232    863.0   37.0
 342    2:00   23.0    83    0.2   346      1.6     0.00       0     234    863.1   37.0
 342    2:10   22.6    83    0.0     2      0.9     0.00       0     236    863.2   36.9
 342    2:20   22.9    84    0.9   272      3.1     0.00       0     239    863.3   36.9
 342    2:30   23.4    83    0.7   202      1.9     0.00       0     236    863.3   36.8
 342    2:40   23.5    82    0.2   187      1.4     0.00       0     248    863.3   36.8
 342    2:50   23.8    81    2.4   133      4.0     0.00       0     243    863.3   36.7
 342    3:00   24.1    81    2.1   114      3.5     0.00       0     249    863.4   36.7
 342    3:10   23.5    81    0.2    73      1.8     0.00       0     239    863.4   36.6
 342    3:20   22.9    82    0.9    80      1.8     0.00       0     228    863.4   36.6
 342    3:30   21.8    83    2.3    62      3.4     0.00       0     228    863.4   36.5
 342    3:40   21.8    84    1.5    38      2.3     0.00       0     226    863.3   36.5
 342    3:50   21.7    85    2.1    18      2.7     0.00       0     223    863.4   36.4
 342    4:00   21.3    86    0.5   318      1.8     0.00       0     223    863.4   36.4
 342    4:10   20.8    87    0.6   308      1.8     0.00       0     219    863.5   36.3
 342    4:20   20.2    88    0.4   307      1.5     0.00       0     223    863.5   36.3
 342    4:30   19.7    89    0.0     0      0.0     0.00       0     223    863.6   36.2
 342    4:40   19.7    90    1.3   318      3.1     0.00       0     225    863.8   36.2
 342    4:50   19.5    89    2.3   328      3.3     0.00       0     228    863.8   36.1
 342    5:00   18.6    89    0.2   334      1.7     0.00       0     233    863.9   36.1
 342    5:10   18.8    90    0.0   335      0.8     0.00       0     231    863.8   36.0
 342    5:20   19.7    90    0.9   316      2.5     0.00       0     228    863.9   36.0
 342    5:30   20.4    87    3.0   348      5.0     0.00       0     230    864.0   35.9
 342    5:40   20.7    86    1.7   337      2.8     0.00       0     234    864.2   35.9
 342    5:50   21.4    84    2.9   337      4.0     0.00       0     239    864.3   35.9
 342    6:00   21.3    84    2.6   344      3.9     0.00       0     238    864.2   35.8
 342    6:10   21.1    84    1.4   334      3.0     0.00       0     241    864.3   35.8
 342    6:20   21.5    83    2.8   349      3.9     0.00       0     252    864.3   35.7
 342    6:30   21.6    83    3.0   347      4.1     0.00       0     263    864.5   35.7
 342    6:40   21.9    82    3.8   355      5.4     0.00       0     262    864.5   35.6
 342    6:50   22.2    81    3.5     4      5.1     0.00       0     258    864.4   35.6
 342    7:00   22.4    82    4.0    12      6.1     0.00       2     261    864.3   35.6
 342    7:10   22.7    81    3.2    14      5.7     0.00       4     271    864.3   35.5
 342    7:20   23.0    80    2.9     3      3.8     0.00       5     274    864.3   35.5
 342    7:30   23.3    80    1.9   352      3.1     0.00      17     272    864.3   35.4
 342    7:40   23.6    80    1.6     6      3.4     0.00      25     277    864.4   35.4
 342    7:50   24.1    79    2.4    21      4.5     0.00      24     278    864.5   35.3
 342    8:00   24.6    78    2.5    23      3.8     0.00      56     285    864.6   35.3
 342    8:10   25.2    76    2.8    20      4.2     0.00      73     288    864.6   35.3
 342    8:20   25.6    75    2.8    46      4.1     0.00      84     292    864.7   35.2
 342    8:30   26.2    74    3.4    56      6.9     0.00      75     288    864.8   35.2
 342    8:40   26.2    74    4.3    53      6.5     0.00      72     291    864.8   35.2
 342    8:50   26.4    73    4.4    57      8.1     0.00      96     290    864.7   35.2
 342    9:00   26.7    73    3.9    46      6.5     0.00     126     286    864.8   35.1
 342    9:10   27.0    72    4.5    44      6.9     0.00     166     277    864.7   35.1
 342    9:20   27.4    71    4.7    45      7.1     0.00     187     268    864.7   35.1
 342    9:30   27.9    70    5.0    46      8.8     0.00     200     261    864.7   35.1
 342    9:40   28.5    69    5.5    43      8.2     0.00     295     256    864.6   35.1
 342    9:50   29.6    66    4.2    82      8.4     0.00     255     251    864.5   35.1
 342   10:00   30.0    65    4.4   101      8.5     0.00     310     256    864.4   35.0
 342   10:10   30.1    64    4.6    99      7.8     0.00     285     254    864.2   35.0
 342   10:20   30.8    63    5.3    90     11.3     0.00     387     254    864.0   35.0
 342   10:30   31.3    62    5.6   108      9.1     0.00     390     257    863.9   35.0
 342   10:40   31.4    61    4.4    94      8.6     0.00     385     262    863.7   35.0
 342   10:50   31.8    60    5.5   120     11.8     0.00     454     262    863.5   35.0
 342   11:00   32.3    59    5.2   115      9.3     0.00     450     256    863.2   35.0
 342   11:10   32.1    59    4.9   108      9.3     0.00     482     254    863.1   35.0
 342   11:20   33.2    56    5.3   140     10.7     0.00     500     257    862.9   35.0
 342   11:30   33.7    54    5.8   153      9.8     0.00     513     259    862.8   35.0
 342   11:40   33.5    55    4.2   137      8.7     0.00     450     254    862.5   35.0
 342   11:50   33.7    54    4.3   133     10.8     0.00     499     256    862.4   35.1

Return to Reno (UNR), Nevada graphs page.


Western Regional Climate Center,wrcc@dri.edu